Terminal Aerodrome Forecast
Issued by NWS Charleston, WV

Current Version | Previous Version | Graphics & Text | Print | Product List | Glossary On
Versions: 1 2 3 4 5 6 7 8 9 10 11 12 13 14 15 16 17 18 19 20 21 22
000
FTUS41 KRLX 101042 AAB
TAFEKN
TAF AMD
KEKN 101042Z 1011/1106 27011KT P6SM OVC015
      TEMPO 1011/1014 3SM -SHSN
     FM101400 26010G21KT P6SM BKN025
     FM102000 25009G19KT P6SM BKN040
     FM110200 25008KT P6SM BKN070=

USA.gov is the U.S. government's official web portal to all federal, state and local government web resources and services.